TimeEDT,TemperatureF,Dew PointF,Humidity,Sea Level PressureIn,VisibilityMPH,Wind Direction,Wind SpeedMPH,Gust SpeedMPH,PrecipitationIn,Events,Conditions,WindDirDegrees,DateUTC
12:53 AM,79.0,73.9,84,30.06,10.0,East,4.6,-,N/A,,Clear,80,2013-08-13 04:53:00
1:53 AM,78.1,73.9,87,30.04,10.0,East,4.6,-,N/A,,Clear,90,2013-08-13 05:53:00
2:53 AM,77.0,73.9,90,30.03,10.0,SE,3.5,-,N/A,,Clear,130,2013-08-13 06:53:00
3:53 AM,77.0,73.9,90,30.03,10.0,East,3.5,-,N/A,,Clear,100,2013-08-13 07:53:00
4:53 AM,75.9,73.9,94,30.02,10.0,Calm,Calm,-,N/A,,Clear,0,2013-08-13 08:53:00
5:53 AM,75.0,73.9,96,30.03,10.0,Calm,Calm,-,N/A,,Clear,0,2013-08-13 09:53:00
6:53 AM,75.0,73.9,96,30.03,10.0,Calm,Calm,-,N/A,,Clear,0,2013-08-13 10:53:00
7:53 AM,75.9,75.0,97,30.04,10.0,ENE,3.5,-,N/A,,Clear,70,2013-08-13 11:53:00
8:53 AM,79.0,75.0,88,30.03,10.0,East,6.9,-,N/A,,Clear,90,2013-08-13 12:53:00
9:53 AM,82.9,75.0,77,30.04,10.0,Variable,5.8,-,N/A,,Clear,0,2013-08-13 13:53:00
10:53 AM,84.9,73.9,69,30.04,10.0,East,4.6,-,N/A,,Mostly Cloudy,100,2013-08-13 14:53:00
11:02 AM,86.0,75.2,70,30.03,10.0,South,4.6,-,N/A,,Scattered Clouds,170,2013-08-13 15:02:00
11:53 AM,88.0,73.9,63,30.04,10.0,Variable,4.6,-,N/A,,Mostly Cloudy,0,2013-08-13 15:53:00
12:53 PM,90.0,73.0,57,30.02,10.0,Calm,Calm,-,N/A,,Partly Cloudy,0,2013-08-13 16:53:00
1:53 PM,91.9,72.0,52,30.01,10.0,ESE,5.8,-,N/A,,Partly Cloudy,110,2013-08-13 17:53:00
2:53 PM,91.9,71.1,50,29.98,10.0,Variable,3.5,-,N/A,,Partly Cloudy,0,2013-08-13 18:53:00
3:53 PM,91.0,75.0,59,29.97,10.0,West,9.2,-,N/A,,Mostly Cloudy,260,2013-08-13 19:53:00
4:40 PM,86.0,75.2,70,29.95,1.5,West,13.8,-,0.02,Rain,Heavy Rain,260,2013-08-13 20:40:00
4:53 PM,82.9,78.1,85,29.97,2.5,WNW,9.2,-,0.13,Rain,Rain,290,2013-08-13 20:53:00
5:04 PM,82.4,78.8,89,29.96,7.0,West,12.7,-,0.05,Rain,Light Rain,280,2013-08-13 21:04:00
5:53 PM,84.9,77.0,77,29.96,7.0,WSW,6.9,-,0.05,,Overcast,240,2013-08-13 21:53:00
6:53 PM,87.1,73.9,65,29.95,10.0,WNW,5.8,-,N/A,,Partly Cloudy,290,2013-08-13 22:53:00
7:53 PM,86.0,75.0,70,29.95,10.0,WNW,9.2,-,N/A,,Mostly Cloudy,300,2013-08-13 23:53:00
8:13 PM,84.2,75.2,74,29.98,10.0,West,6.9,-,N/A,Thunderstorm,Thunderstorm,270,2013-08-14 00:13:00
8:44 PM,78.8,75.2,89,30.01,2.5,East,16.1,23.0,0.13,Rain-Thunderstorm,Heavy Thunderstorms and Rain,100,2013-08-14 00:44:00
8:47 PM,77.0,73.4,89,30.00,1.8,East,18.4,24.2,0.22,Rain-Thunderstorm,Heavy Thunderstorms and Rain,90,2013-08-14 00:47:00
8:53 PM,75.0,73.0,94,30.02,1.5,ENE,17.3,24.2,0.36,Rain-Thunderstorm,Heavy Thunderstorms and Rain,70,2013-08-14 00:53:00
9:04 PM,73.4,73.4,100,30.01,2.0,NNW,11.5,-,0.20,Rain-Thunderstorm,Heavy Thunderstorms and Rain,340,2013-08-14 01:04:00
9:14 PM,75.2,73.4,94,29.99,8.0,NNW,9.2,-,0.24,Rain-Thunderstorm,Light Thunderstorms and Rain,330,2013-08-14 01:14:00
9:53 PM,75.0,71.1,87,30.01,10.0,WNW,3.5,-,0.24,Thunderstorm,Partly Cloudy,290,2013-08-14 01:53:00
10:04 PM,75.2,71.6,89,30.01,10.0,West,3.5,-,N/A,,Partly Cloudy,280,2013-08-14 02:04:00
10:18 PM,75.2,71.6,89,30.02,10.0,Calm,Calm,-,N/A,Thunderstorm,Clear,0,2013-08-14 02:18:00
10:33 PM,75.2,71.6,89,30.02,10.0,Calm,Calm,-,N/A,,Clear,0,2013-08-14 02:33:00
10:53 PM,75.9,73.9,94,30.04,10.0,East,3.5,-,N/A,,Scattered Clouds,90,2013-08-14 02:53:00
11:53 PM,75.9,73.0,91,30.03,10.0,Calm,Calm,-,N/A,,Scattered Clouds,0,2013-08-14 03:53:00